sensor_id;sensor_type;location;lat;lon;timestamp;P1;durP1;ratioP1;P2;durP2;ratioP2
29662;SDS011;16578;53.266;7.920;2023-08-06T00:01:13;5.72;;;5.22;;
29662;SDS011;16578;53.266;7.920;2023-08-06T00:03:39;5.70;;;5.18;;
29662;SDS011;16578;53.266;7.920;2023-08-06T00:06:04;5.28;;;4.78;;
29662;SDS011;16578;53.266;7.920;2023-08-06T00:08:31;5.50;;;5.00;;
29662;SDS011;16578;53.266;7.920;2023-08-06T00:10:56;5.72;;;5.22;;
29662;SDS011;16578;53.266;7.920;2023-08-06T00:13:22;9.23;;;4.88;;
29662;SDS011;16578;53.266;7.920;2023-08-06T00:15:47;5.40;;;4.90;;
29662;SDS011;16578;53.266;7.920;2023-08-06T00:18:13;6.60;;;5.22;;
29662;SDS011;16578;53.266;7.920;2023-08-06T00:20:39;4.97;;;4.47;;
29662;SDS011;16578;53.266;7.920;2023-08-06T00:23:05;5.53;;;5.03;;
29662;SDS011;16578;53.266;7.920;2023-08-06T00:25:40;5.40;;;4.63;;
29662;SDS011;16578;53.266;7.920;2023-08-06T00:28:06;5.70;;;5.10;;
29662;SDS011;16578;53.266;7.920;2023-08-06T00:30:32;5.43;;;4.65;;
29662;SDS011;16578;53.266;7.920;2023-08-06T00:33:09;4.90;;;4.43;;
29662;SDS011;16578;53.266;7.920;2023-08-06T00:35:38;4.93;;;4.25;;
29662;SDS011;16578;53.266;7.920;2023-08-06T00:40:41;5.90;;;4.78;;
29662;SDS011;16578;53.266;7.920;2023-08-06T00:43:10;5.25;;;4.75;;
29662;SDS011;16578;53.266;7.920;2023-08-06T00:45:38;5.88;;;5.22;;
29662;SDS011;16578;53.266;7.920;2023-08-06T00:48:05;5.53;;;5.03;;
29662;SDS011;16578;53.266;7.920;2023-08-06T00:50:34;5.50;;;4.95;;
29662;SDS011;16578;53.266;7.920;2023-08-06T00:53:10;5.78;;;5.22;;
29662;SDS011;16578;53.266;7.920;2023-08-06T00:55:35;6.13;;;5.53;;
29662;SDS011;16578;53.266;7.920;2023-08-06T00:58:04;7.85;;;5.07;;
29662;SDS011;16578;53.266;7.920;2023-08-06T01:01:22;5.70;;;5.07;;
29662;SDS011;16578;53.266;7.920;2023-08-06T01:03:33;5.47;;;4.97;;
29662;SDS011;16578;53.266;7.920;2023-08-06T01:06:01;6.72;;;5.20;;
29662;SDS011;16578;53.266;7.920;2023-08-06T01:08:33;5.70;;;5.20;;
29662;SDS011;16578;53.266;7.920;2023-08-06T01:14:30;6.82;;;5.53;;
29662;SDS011;16578;53.266;7.920;2023-08-06T01:17:05;5.82;;;5.25;;
29662;SDS011;16578;53.266;7.920;2023-08-06T01:19:32;6.65;;;5.38;;
29662;SDS011;16578;53.266;7.920;2023-08-06T01:22:08;7.05;;;5.63;;
29662;SDS011;16578;53.266;7.920;2023-08-06T01:24:37;6.05;;;5.35;;
29662;SDS011;16578;53.266;7.920;2023-08-06T01:27:24;6.00;;;5.40;;
29662;SDS011;16578;53.266;7.920;2023-08-06T01:29:59;6.30;;;5.70;;
29662;SDS011;16578;53.266;7.920;2023-08-06T01:32:39;7.20;;;5.50;;
29662;SDS011;16578;53.266;7.920;2023-08-06T01:35:22;5.88;;;5.32;;
29662;SDS011;16578;53.266;7.920;2023-08-06T01:37:54;8.20;;;6.65;;
29662;SDS011;16578;53.266;7.920;2023-08-06T01:40:40;6.93;;;6.03;;
29662;SDS011;16578;53.266;7.920;2023-08-06T01:43:09;6.60;;;5.95;;
29662;SDS011;16578;53.266;7.920;2023-08-06T01:45:40;7.07;;;6.38;;
29662;SDS011;16578;53.266;7.920;2023-08-06T01:48:09;6.82;;;6.07;;
29662;SDS011;16578;53.266;7.920;2023-08-06T01:50:37;6.50;;;5.78;;
29662;SDS011;16578;53.266;7.920;2023-08-06T01:53:08;6.43;;;5.78;;
29662;SDS011;16578;53.266;7.920;2023-08-06T01:55:47;6.97;;;6.28;;
29662;SDS011;16578;53.266;7.920;2023-08-06T01:58:26;6.95;;;6.18;;
29662;SDS011;16578;53.266;7.920;2023-08-06T02:00:57;7.07;;;6.38;;
29662;SDS011;16578;53.266;7.920;2023-08-06T02:03:23;8.63;;;6.78;;
29662;SDS011;16578;53.266;7.920;2023-08-06T02:05:58;6.90;;;6.20;;
29662;SDS011;16578;53.266;7.920;2023-08-06T02:08:24;7.57;;;6.82;;
29662;SDS011;16578;53.266;7.920;2023-08-06T02:10:50;10.30;;;6.72;;
29662;SDS011;16578;53.266;7.920;2023-08-06T02:13:15;7.30;;;6.55;;
29662;SDS011;16578;53.266;7.920;2023-08-06T02:18:21;6.72;;;5.95;;
29662;SDS011;16578;53.266;7.920;2023-08-06T02:23:54;7.78;;;6.53;;
29662;SDS011;16578;53.266;7.920;2023-08-06T02:26:29;6.38;;;5.78;;
29662;SDS011;16578;53.266;7.920;2023-08-06T02:28:54;7.70;;;6.32;;
29662;SDS011;16578;53.266;7.920;2023-08-06T02:31:22;7.30;;;6.60;;
29662;SDS011;16578;53.266;7.920;2023-08-06T02:33:56;9.13;;;6.80;;
29662;SDS011;16578;53.266;7.920;2023-08-06T02:36:23;7.45;;;6.75;;
29662;SDS011;16578;53.266;7.920;2023-08-06T02:39:04;7.07;;;6.38;;
29662;SDS011;16578;53.266;7.920;2023-08-06T02:41:29;8.73;;;6.20;;
29662;SDS011;16578;53.266;7.920;2023-08-06T02:46:26;7.35;;;6.65;;
29662;SDS011;16578;53.266;7.920;2023-08-06T02:49:03;8.20;;;7.35;;
29662;SDS011;16578;53.266;7.920;2023-08-06T02:51:29;8.95;;;7.07;;
29662;SDS011;16578;53.266;7.920;2023-08-06T02:53:57;7.25;;;6.55;;
29662;SDS011;16578;53.266;7.920;2023-08-06T02:56:25;9.55;;;6.90;;
29662;SDS011;16578;53.266;7.920;2023-08-06T02:58:51;7.53;;;6.82;;
29662;SDS011;16578;53.266;7.920;2023-08-06T03:01:30;8.07;;;7.28;;
29662;SDS011;16578;53.266;7.920;2023-08-06T03:04:04;7.30;;;6.60;;
29662;SDS011;16578;53.266;7.920;2023-08-06T03:06:35;7.80;;;7.03;;
29662;SDS011;16578;53.266;7.920;2023-08-06T03:09:03;9.57;;;6.93;;
29662;SDS011;16578;53.266;7.920;2023-08-06T03:11:43;7.05;;;6.40;;
29662;SDS011;16578;53.266;7.920;2023-08-06T03:14:11;8.45;;;7.15;;
29662;SDS011;16578;53.266;7.920;2023-08-06T03:16:37;8.00;;;7.18;;
29662;SDS011;16578;53.266;7.920;2023-08-06T03:19:05;7.35;;;6.68;;
29662;SDS011;16578;53.266;7.920;2023-08-06T03:21:34;8.20;;;7.50;;
29662;SDS011;16578;53.266;7.920;2023-08-06T03:23:59;7.30;;;6.68;;
29662;SDS011;16578;53.266;7.920;2023-08-06T03:26:36;7.97;;;7.10;;
29662;SDS011;16578;53.266;7.920;2023-08-06T03:29:02;9.00;;;7.18;;
29662;SDS011;16578;53.266;7.920;2023-08-06T03:31:34;7.85;;;7.05;;
29662;SDS011;16578;53.266;7.920;2023-08-06T03:34:02;7.20;;;6.45;;
29662;SDS011;16578;53.266;7.920;2023-08-06T03:36:37;8.60;;;6.95;;
29662;SDS011;16578;53.266;7.920;2023-08-06T03:39:08;7.30;;;6.60;;
29662;SDS011;16578;53.266;7.920;2023-08-06T03:41:45;7.78;;;6.97;;
29662;SDS011;16578;53.266;7.920;2023-08-06T03:44:14;7.00;;;6.25;;
29662;SDS011;16578;53.266;7.920;2023-08-06T03:46:48;7.00;;;6.30;;
29662;SDS011;16578;53.266;7.920;2023-08-06T03:49:16;6.95;;;6.28;;
29662;SDS011;16578;53.266;7.920;2023-08-06T03:51:45;6.95;;;6.25;;
29662;SDS011;16578;53.266;7.920;2023-08-06T03:54:16;6.82;;;6.13;;
29662;SDS011;16578;53.266;7.920;2023-08-06T03:56:47;6.88;;;6.18;;
29662;SDS011;16578;53.266;7.920;2023-08-06T03:59:16;7.05;;;6.35;;
29662;SDS011;16578;53.266;7.920;2023-08-06T04:01:41;6.63;;;6.03;;
29662;SDS011;16578;53.266;7.920;2023-08-06T04:07:04;6.97;;;6.28;;
29662;SDS011;16578;53.266;7.920;2023-08-06T04:09:30;7.03;;;6.30;;
29662;SDS011;16578;53.266;7.920;2023-08-06T04:14:50;5.80;;;5.30;;
29662;SDS011;16578;53.266;7.920;2023-08-06T04:20:08;7.65;;;5.70;;
29662;SDS011;16578;53.266;7.920;2023-08-06T04:22:33;7.43;;;6.70;;
29662;SDS011;16578;53.266;7.920;2023-08-06T04:25:02;7.97;;;6.78;;
29662;SDS011;16578;53.266;7.920;2023-08-06T04:27:28;6.88;;;6.18;;
29662;SDS011;16578;53.266;7.920;2023-08-06T04:29:53;7.88;;;6.10;;
29662;SDS011;16578;53.266;7.920;2023-08-06T04:32:22;6.65;;;6.05;;
29662;SDS011;16578;53.266;7.920;2023-08-06T04:34:48;8.93;;;6.25;;
29662;SDS011;16578;53.266;7.920;2023-08-06T04:37:29;7.78;;;5.70;;
29662;SDS011;16578;53.266;7.920;2023-08-06T04:40:18;7.25;;;6.45;;
29662;SDS011;16578;53.266;7.920;2023-08-06T04:42:47;6.45;;;5.85;;
29662;SDS011;16578;53.266;7.920;2023-08-06T04:45:15;7.80;;;6.78;;
29662;SDS011;16578;53.266;7.920;2023-08-06T04:50:15;6.75;;;5.60;;
29662;SDS011;16578;53.266;7.920;2023-08-06T04:52:41;6.53;;;5.93;;
29662;SDS011;16578;53.266;7.920;2023-08-06T04:55:06;6.85;;;6.20;;
29662;SDS011;16578;53.266;7.920;2023-08-06T04:57:32;6.97;;;6.32;;
29662;SDS011;16578;53.266;7.920;2023-08-06T04:59:58;7.57;;;6.40;;
29662;SDS011;16578;53.266;7.920;2023-08-06T05:02:52;6.85;;;6.25;;
29662;SDS011;16578;53.266;7.920;2023-08-06T05:05:21;8.90;;;8.00;;
29662;SDS011;16578;53.266;7.920;2023-08-06T05:07:51;8.90;;;8.00;;
29662;SDS011;16578;53.266;7.920;2023-08-06T05:10:26;13.20;;;9.60;;
29662;SDS011;16578;53.266;7.920;2023-08-06T05:13:03;12.35;;;10.40;;
29662;SDS011;16578;53.266;7.920;2023-08-06T05:15:31;12.63;;;11.27;;
29662;SDS011;16578;53.266;7.920;2023-08-06T05:18:09;12.98;;;11.43;;
29662;SDS011;16578;53.266;7.920;2023-08-06T05:20:50;15.88;;;12.07;;
29662;SDS011;16578;53.266;7.920;2023-08-06T05:23:19;17.02;;;13.07;;
29662;SDS011;16578;53.266;7.920;2023-08-06T05:25:45;16.00;;;13.50;;
29662;SDS011;16578;53.266;7.920;2023-08-06T05:28:10;16.73;;;14.45;;
29662;SDS011;16578;53.266;7.920;2023-08-06T05:30:40;17.40;;;14.65;;
29662;SDS011;16578;53.266;7.920;2023-08-06T05:33:09;19.48;;;14.60;;
29662;SDS011;16578;53.266;7.920;2023-08-06T05:35:35;16.10;;;14.13;;
29662;SDS011;16578;53.266;7.920;2023-08-06T05:38:08;17.00;;;14.45;;
29662;SDS011;16578;53.266;7.920;2023-08-06T05:40:39;16.30;;;13.73;;
29662;SDS011;16578;53.266;7.920;2023-08-06T05:43:28;16.55;;;13.25;;
29662;SDS011;16578;53.266;7.920;2023-08-06T05:46:03;15.43;;;13.82;;
29662;SDS011;16578;53.266;7.920;2023-08-06T05:48:45;15.50;;;13.27;;
29662;SDS011;16578;53.266;7.920;2023-08-06T05:53:48;13.25;;;11.40;;
29662;SDS011;16578;53.266;7.920;2023-08-06T05:56:15;13.23;;;11.82;;
29662;SDS011;16578;53.266;7.920;2023-08-06T05:58:41;13.30;;;11.98;;
29662;SDS011;16578;53.266;7.920;2023-08-06T06:01:06;12.35;;;11.02;;
29662;SDS011;16578;53.266;7.920;2023-08-06T06:03:38;12.68;;;11.05;;
29662;SDS011;16578;53.266;7.920;2023-08-06T06:06:12;13.10;;;11.30;;
29662;SDS011;16578;53.266;7.920;2023-08-06T06:08:58;11.95;;;10.10;;
29662;SDS011;16578;53.266;7.920;2023-08-06T06:11:32;11.98;;;10.70;;
29662;SDS011;16578;53.266;7.920;2023-08-06T06:13:58;10.90;;;9.90;;
29662;SDS011;16578;53.266;7.920;2023-08-06T06:16:26;10.73;;;9.70;;
29662;SDS011;16578;53.266;7.920;2023-08-06T06:18:54;10.32;;;9.40;;
29662;SDS011;16578;53.266;7.920;2023-08-06T06:21:29;10.48;;;9.48;;
29662;SDS011;16578;53.266;7.920;2023-08-06T06:23:54;10.30;;;9.30;;
29662;SDS011;16578;53.266;7.920;2023-08-06T06:26:21;10.77;;;9.00;;
29662;SDS011;16578;53.266;7.920;2023-08-06T06:28:47;9.65;;;8.75;;
29662;SDS011;16578;53.266;7.920;2023-08-06T06:31:12;10.23;;;9.23;;
29662;SDS011;16578;53.266;7.920;2023-08-06T06:33:44;8.80;;;8.00;;
29662;SDS011;16578;53.266;7.920;2023-08-06T06:36:18;9.57;;;8.57;;
29662;SDS011;16578;53.266;7.920;2023-08-06T06:38:44;9.55;;;8.60;;
29662;SDS011;16578;53.266;7.920;2023-08-06T06:41:09;14.27;;;8.60;;
29662;SDS011;16578;53.266;7.920;2023-08-06T06:43:35;8.98;;;8.07;;
29662;SDS011;16578;53.266;7.920;2023-08-06T06:46:02;8.85;;;7.95;;
29662;SDS011;16578;53.266;7.920;2023-08-06T06:48:30;9.77;;;8.90;;
29662;SDS011;16578;53.266;7.920;2023-08-06T06:51:22;9.10;;;8.30;;
29662;SDS011;16578;53.266;7.920;2023-08-06T06:53:47;9.95;;;9.05;;
29662;SDS011;16578;53.266;7.920;2023-08-06T06:56:19;9.02;;;7.88;;
29662;SDS011;16578;53.266;7.920;2023-08-06T06:58:47;10.02;;;9.07;;
29662;SDS011;16578;53.266;7.920;2023-08-06T07:01:16;9.93;;;8.13;;
29662;SDS011;16578;53.266;7.920;2023-08-06T07:03:56;8.93;;;8.02;;
29662;SDS011;16578;53.266;7.920;2023-08-06T07:06:33;8.77;;;7.97;;
29662;SDS011;16578;53.266;7.920;2023-08-06T07:09:05;9.98;;;9.13;;
29662;SDS011;16578;53.266;7.920;2023-08-06T07:11:39;9.60;;;8.80;;
29662;SDS011;16578;53.266;7.920;2023-08-06T07:14:15;8.25;;;7.55;;
29662;SDS011;16578;53.266;7.920;2023-08-06T07:16:45;9.60;;;8.75;;
29662;SDS011;16578;53.266;7.920;2023-08-06T07:19:20;10.30;;;9.23;;
29662;SDS011;16578;53.266;7.920;2023-08-06T07:21:54;8.88;;;8.15;;
29662;SDS011;16578;53.266;7.920;2023-08-06T07:26:57;9.40;;;8.60;;
29662;SDS011;16578;53.266;7.920;2023-08-06T07:29:50;10.60;;;9.70;;
29662;SDS011;16578;53.266;7.920;2023-08-06T07:33:09;9.85;;;8.95;;
29662;SDS011;16578;53.266;7.920;2023-08-06T07:36:28;10.48;;;9.48;;
29662;SDS011;16578;53.266;7.920;2023-08-06T07:39:03;10.48;;;9.55;;
29662;SDS011;16578;53.266;7.920;2023-08-06T07:41:31;10.52;;;9.57;;
29662;SDS011;16578;53.266;7.920;2023-08-06T07:43:57;11.77;;;10.63;;
29662;SDS011;16578;53.266;7.920;2023-08-06T07:46:25;11.80;;;10.70;;
29662;SDS011;16578;53.266;7.920;2023-08-06T07:48:54;12.52;;;11.35;;
29662;SDS011;16578;53.266;7.920;2023-08-06T07:51:24;13.32;;;12.13;;
29662;SDS011;16578;53.266;7.920;2023-08-06T07:53:53;14.32;;;12.93;;
29662;SDS011;16578;53.266;7.920;2023-08-06T07:56:33;14.18;;;12.98;;
29662;SDS011;16578;53.266;7.920;2023-08-06T07:59:04;14.43;;;13.23;;
29662;SDS011;16578;53.266;7.920;2023-08-06T08:01:35;14.38;;;13.05;;
29662;SDS011;16578;53.266;7.920;2023-08-06T08:06:38;14.15;;;12.90;;
29662;SDS011;16578;53.266;7.920;2023-08-06T08:09:10;14.33;;;13.07;;
29662;SDS011;16578;53.266;7.920;2023-08-06T08:11:42;14.90;;;13.40;;
29662;SDS011;16578;53.266;7.920;2023-08-06T08:14:13;12.35;;;11.23;;
29662;SDS011;16578;53.266;7.920;2023-08-06T08:16:42;13.30;;;11.98;;
29662;SDS011;16578;53.266;7.920;2023-08-06T08:19:29;11.18;;;10.18;;
29662;SDS011;16578;53.266;7.920;2023-08-06T08:21:54;11.23;;;10.23;;
29662;SDS011;16578;53.266;7.920;2023-08-06T08:24:23;11.40;;;10.40;;
29662;SDS011;16578;53.266;7.920;2023-08-06T08:26:51;11.15;;;10.15;;
29662;SDS011;16578;53.266;7.920;2023-08-06T08:29:20;10.70;;;9.77;;
29662;SDS011;16578;53.266;7.920;2023-08-06T08:31:49;11.18;;;10.18;;
29662;SDS011;16578;53.266;7.920;2023-08-06T08:34:29;10.38;;;9.57;;
29662;SDS011;16578;53.266;7.920;2023-08-06T08:37:17;11.10;;;10.10;;
29662;SDS011;16578;53.266;7.920;2023-08-06T08:39:53;10.15;;;9.25;;
29662;SDS011;16578;53.266;7.920;2023-08-06T08:42:21;9.60;;;8.80;;
29662;SDS011;16578;53.266;7.920;2023-08-06T08:44:50;9.88;;;9.07;;
29662;SDS011;16578;53.266;7.920;2023-08-06T08:47:25;9.70;;;8.90;;
29662;SDS011;16578;53.266;7.920;2023-08-06T08:49:56;9.70;;;8.77;;
29662;SDS011;16578;53.266;7.920;2023-08-06T08:52:39;8.30;;;7.60;;
29662;SDS011;16578;53.266;7.920;2023-08-06T08:55:21;8.30;;;7.60;;
29662;SDS011;16578;53.266;7.920;2023-08-06T08:58:01;8.50;;;7.87;;
29662;SDS011;16578;53.266;7.920;2023-08-06T09:00:58;7.85;;;7.22;;
29662;SDS011;16578;53.266;7.920;2023-08-06T09:06:15;9.02;;;8.23;;
29662;SDS011;16578;53.266;7.920;2023-08-06T09:09:08;8.68;;;7.97;;
29662;SDS011;16578;53.266;7.920;2023-08-06T09:11:42;8.88;;;8.18;;
29662;SDS011;16578;53.266;7.920;2023-08-06T09:14:17;7.70;;;7.10;;
29662;SDS011;16578;53.266;7.920;2023-08-06T09:16:54;8.52;;;7.70;;
29662;SDS011;16578;53.266;7.920;2023-08-06T09:19:26;7.85;;;7.15;;
29662;SDS011;16578;53.266;7.920;2023-08-06T09:22:01;7.32;;;6.72;;
29662;SDS011;16578;53.266;7.920;2023-08-06T09:24:38;7.60;;;6.90;;
29662;SDS011;16578;53.266;7.920;2023-08-06T09:27:04;6.55;;;6.05;;
29662;SDS011;16578;53.266;7.920;2023-08-06T09:29:49;5.60;;;5.20;;
29662;SDS011;16578;53.266;7.920;2023-08-06T09:32:18;5.82;;;5.05;;
29662;SDS011;16578;53.266;7.920;2023-08-06T09:34:54;5.55;;;4.10;;
29662;SDS011;16578;53.266;7.920;2023-08-06T09:37:25;4.78;;;4.30;;
29662;SDS011;16578;53.266;7.920;2023-08-06T09:42:29;4.50;;;4.10;;
29662;SDS011;16578;53.266;7.920;2023-08-06T09:45:06;4.22;;;3.92;;
29662;SDS011;16578;53.266;7.920;2023-08-06T09:47:32;3.80;;;3.50;;
29662;SDS011;16578;53.266;7.920;2023-08-06T09:50:14;3.20;;;2.90;;
29662;SDS011;16578;53.266;7.920;2023-08-06T09:52:57;2.55;;;1.98;;
29662;SDS011;16578;53.266;7.920;2023-08-06T09:55:28;2.20;;;2.10;;
29662;SDS011;16578;53.266;7.920;2023-08-06T09:57:54;2.00;;;1.90;;
29662;SDS011;16578;53.266;7.920;2023-08-06T10:00:23;1.80;;;1.70;;
29662;SDS011;16578;53.266;7.920;2023-08-06T10:02:59;2.63;;;2.08;;
29662;SDS011;16578;53.266;7.920;2023-08-06T10:05:29;2.40;;;2.20;;
29662;SDS011;16578;53.266;7.920;2023-08-06T10:07:57;2.05;;;1.95;;
29662;SDS011;16578;53.266;7.920;2023-08-06T10:10:26;3.08;;;2.58;;
29662;SDS011;16578;53.266;7.920;2023-08-06T10:12:57;2.30;;;2.10;;
29662;SDS011;16578;53.266;7.920;2023-08-06T10:15:28;2.60;;;2.40;;
29662;SDS011;16578;53.266;7.920;2023-08-06T10:17:57;2.63;;;2.42;;
29662;SDS011;16578;53.266;7.920;2023-08-06T10:20:24;2.80;;;2.60;;
29662;SDS011;16578;53.266;7.920;2023-08-06T10:23:00;2.22;;;2.13;;
29662;SDS011;16578;53.266;7.920;2023-08-06T10:25:30;2.65;;;2.45;;
29662;SDS011;16578;53.266;7.920;2023-08-06T10:27:59;2.28;;;2.08;;
29662;SDS011;16578;53.266;7.920;2023-08-06T10:30:28;2.63;;;2.40;;
29662;SDS011;16578;53.266;7.920;2023-08-06T10:33:00;2.60;;;2.40;;
29662;SDS011;16578;53.266;7.920;2023-08-06T10:35:37;2.92;;;2.22;;
29662;SDS011;16578;53.266;7.920;2023-08-06T10:38:25;2.03;;;1.92;;
29662;SDS011;16578;53.266;7.920;2023-08-06T10:43:34;2.15;;;1.95;;
29662;SDS011;16578;53.266;7.920;2023-08-06T10:46:03;1.70;;;1.60;;
29662;SDS011;16578;53.266;7.920;2023-08-06T10:49:01;2.10;;;1.90;;
29662;SDS011;16578;53.266;7.920;2023-08-06T10:51:28;1.70;;;1.60;;
29662;SDS011;16578;53.266;7.920;2023-08-06T10:53:54;1.90;;;1.50;;
29662;SDS011;16578;53.266;7.920;2023-08-06T10:56:21;4.57;;;2.20;;
29662;SDS011;16578;53.266;7.920;2023-08-06T10:58:48;2.80;;;1.77;;
29662;SDS011;16578;53.266;7.920;2023-08-06T11:01:14;2.00;;;1.90;;
29662;SDS011;16578;53.266;7.920;2023-08-06T11:03:41;1.98;;;1.83;;
29662;SDS011;16578;53.266;7.920;2023-08-06T11:06:07;1.90;;;1.80;;
29662;SDS011;16578;53.266;7.920;2023-08-06T11:08:34;2.13;;;1.92;;
29662;SDS011;16578;53.266;7.920;2023-08-06T11:11:07;1.98;;;1.75;;
29662;SDS011;16578;53.266;7.920;2023-08-06T11:13:38;2.03;;;1.65;;
29662;SDS011;16578;53.266;7.920;2023-08-06T11:16:08;1.67;;;1.58;;
29662;SDS011;16578;53.266;7.920;2023-08-06T11:18:35;2.55;;;2.03;;
29662;SDS011;16578;53.266;7.920;2023-08-06T11:21:01;2.10;;;1.90;;
29662;SDS011;16578;53.266;7.920;2023-08-06T11:23:27;2.30;;;2.10;;
29662;SDS011;16578;53.266;7.920;2023-08-06T11:25:59;6.13;;;2.40;;
29662;SDS011;16578;53.266;7.920;2023-08-06T11:28:28;2.45;;;2.00;;
29662;SDS011;16578;53.266;7.920;2023-08-06T11:30:59;3.78;;;2.22;;
29662;SDS011;16578;53.266;7.920;2023-08-06T11:33:27;2.40;;;1.98;;
29662;SDS011;16578;53.266;7.920;2023-08-06T11:36:02;2.00;;;1.90;;
29662;SDS011;16578;53.266;7.920;2023-08-06T11:38:39;2.47;;;1.95;;
29662;SDS011;16578;53.266;7.920;2023-08-06T11:41:06;2.47;;;2.28;;
29662;SDS011;16578;53.266;7.920;2023-08-06T11:43:32;4.18;;;2.72;;
29662;SDS011;16578;53.266;7.920;2023-08-06T11:46:06;2.15;;;1.95;;
29662;SDS011;16578;53.266;7.920;2023-08-06T11:48:32;2.03;;;1.83;;
29662;SDS011;16578;53.266;7.920;2023-08-06T11:51:15;2.40;;;2.20;;
29662;SDS011;16578;53.266;7.920;2023-08-06T11:54:09;2.80;;;2.05;;
29662;SDS011;16578;53.266;7.920;2023-08-06T11:56:43;2.20;;;2.00;;
29662;SDS011;16578;53.266;7.920;2023-08-06T11:59:11;2.30;;;2.10;;
29662;SDS011;16578;53.266;7.920;2023-08-06T12:01:41;2.10;;;2.00;;
29662;SDS011;16578;53.266;7.920;2023-08-06T12:04:06;2.53;;;2.28;;
29662;SDS011;16578;53.266;7.920;2023-08-06T12:06:41;2.58;;;2.25;;
29662;SDS011;16578;53.266;7.920;2023-08-06T12:09:19;2.67;;;2.22;;
29662;SDS011;16578;53.266;7.920;2023-08-06T12:11:53;2.67;;;2.00;;
29662;SDS011;16578;53.266;7.920;2023-08-06T12:14:19;2.13;;;1.92;;
29662;SDS011;16578;53.266;7.920;2023-08-06T12:16:47;2.15;;;1.95;;
29662;SDS011;16578;53.266;7.920;2023-08-06T12:19:12;3.75;;;2.28;;
29662;SDS011;16578;53.266;7.920;2023-08-06T12:21:41;3.47;;;2.65;;
29662;SDS011;16578;53.266;7.920;2023-08-06T12:24:09;3.08;;;2.33;;
29662;SDS011;16578;53.266;7.920;2023-08-06T12:26:38;2.70;;;2.50;;
29662;SDS011;16578;53.266;7.920;2023-08-06T12:29:03;2.60;;;2.40;;
29662;SDS011;16578;53.266;7.920;2023-08-06T12:31:29;2.83;;;2.55;;
29662;SDS011;16578;53.266;7.920;2023-08-06T12:33:57;2.97;;;2.70;;
29662;SDS011;16578;53.266;7.920;2023-08-06T12:36:22;2.25;;;2.05;;
29662;SDS011;16578;53.266;7.920;2023-08-06T12:38:48;3.92;;;2.30;;
29662;SDS011;16578;53.266;7.920;2023-08-06T12:41:13;2.65;;;2.42;;
29662;SDS011;16578;53.266;7.920;2023-08-06T12:43:39;3.70;;;2.63;;
29662;SDS011;16578;53.266;7.920;2023-08-06T12:46:04;2.30;;;2.10;;
29662;SDS011;16578;53.266;7.920;2023-08-06T12:48:30;3.63;;;2.28;;
29662;SDS011;16578;53.266;7.920;2023-08-06T12:50:56;2.83;;;2.42;;
29662;SDS011;16578;53.266;7.920;2023-08-06T12:53:21;3.15;;;2.20;;
29662;SDS011;16578;53.266;7.920;2023-08-06T12:55:48;3.15;;;2.20;;
29662;SDS011;16578;53.266;7.920;2023-08-06T12:58:13;2.70;;;2.25;;
29662;SDS011;16578;53.266;7.920;2023-08-06T13:00:39;2.80;;;2.60;;
29662;SDS011;16578;53.266;7.920;2023-08-06T13:03:04;3.05;;;2.30;;
29662;SDS011;16578;53.266;7.920;2023-08-06T13:05:30;3.92;;;2.70;;
29662;SDS011;16578;53.266;7.920;2023-08-06T13:07:55;2.70;;;2.13;;
29662;SDS011;16578;53.266;7.920;2023-08-06T13:10:21;4.93;;;2.45;;
29662;SDS011;16578;53.266;7.920;2023-08-06T13:12:48;2.72;;;2.53;;
29662;SDS011;16578;53.266;7.920;2023-08-06T13:15:13;2.67;;;2.47;;
29662;SDS011;16578;53.266;7.920;2023-08-06T13:17:39;3.25;;;2.10;;
29662;SDS011;16578;53.266;7.920;2023-08-06T13:20:05;3.78;;;2.60;;
29662;SDS011;16578;53.266;7.920;2023-08-06T13:22:31;2.70;;;2.30;;
29662;SDS011;16578;53.266;7.920;2023-08-06T13:24:56;4.00;;;2.38;;
29662;SDS011;16578;53.266;7.920;2023-08-06T13:27:22;3.25;;;2.70;;
29662;SDS011;16578;53.266;7.920;2023-08-06T13:29:47;3.15;;;2.17;;
29662;SDS011;16578;53.266;7.920;2023-08-06T13:32:13;2.83;;;2.47;;
29662;SDS011;16578;53.266;7.920;2023-08-06T13:34:38;3.03;;;2.28;;
29662;SDS011;16578;53.266;7.920;2023-08-06T13:37:04;4.38;;;2.05;;
29662;SDS011;16578;53.266;7.920;2023-08-06T13:39:29;4.50;;;2.55;;
29662;SDS011;16578;53.266;7.920;2023-08-06T13:41:55;3.65;;;2.70;;
29662;SDS011;16578;53.266;7.920;2023-08-06T13:44:21;2.80;;;2.13;;
29662;SDS011;16578;53.266;7.920;2023-08-06T13:46:46;2.20;;;2.00;;
29662;SDS011;16578;53.266;7.920;2023-08-06T13:49:12;5.60;;;2.20;;
29662;SDS011;16578;53.266;7.920;2023-08-06T13:51:37;2.13;;;1.77;;
29662;SDS011;16578;53.266;7.920;2023-08-06T13:54:03;3.25;;;2.17;;
29662;SDS011;16578;53.266;7.920;2023-08-06T13:56:28;2.03;;;1.63;;
29662;SDS011;16578;53.266;7.920;2023-08-06T13:58:55;2.13;;;1.92;;
29662;SDS011;16578;53.266;7.920;2023-08-06T14:01:20;1.75;;;1.65;;
29662;SDS011;16578;53.266;7.920;2023-08-06T14:03:46;3.42;;;1.90;;
29662;SDS011;16578;53.266;7.920;2023-08-06T14:06:11;2.15;;;1.95;;
29662;SDS011;16578;53.266;7.920;2023-08-06T14:08:37;2.15;;;1.85;;
29662;SDS011;16578;53.266;7.920;2023-08-06T14:11:02;2.58;;;2.13;;
29662;SDS011;16578;53.266;7.920;2023-08-06T14:13:31;4.00;;;2.33;;
29662;SDS011;16578;53.266;7.920;2023-08-06T14:15:56;2.70;;;2.13;;
29662;SDS011;16578;53.266;7.920;2023-08-06T14:18:22;3.13;;;2.20;;
29662;SDS011;16578;53.266;7.920;2023-08-06T14:20:47;2.60;;;1.98;;
29662;SDS011;16578;53.266;7.920;2023-08-06T14:23:13;4.97;;;2.08;;
29662;SDS011;16578;53.266;7.920;2023-08-06T14:25:38;3.22;;;1.98;;
29662;SDS011;16578;53.266;7.920;2023-08-06T14:28:04;2.47;;;2.13;;
29662;SDS011;16578;53.266;7.920;2023-08-06T14:30:31;2.63;;;2.22;;
29662;SDS011;16578;53.266;7.920;2023-08-06T14:32:58;2.70;;;2.20;;
29662;SDS011;16578;53.266;7.920;2023-08-06T14:35:25;2.60;;;2.08;;
29662;SDS011;16578;53.266;7.920;2023-08-06T14:37:51;2.67;;;2.13;;
29662;SDS011;16578;53.266;7.920;2023-08-06T14:40:16;2.35;;;2.00;;
29662;SDS011;16578;53.266;7.920;2023-08-06T14:42:42;2.15;;;1.95;;
29662;SDS011;16578;53.266;7.920;2023-08-06T14:45:07;2.17;;;1.98;;
29662;SDS011;16578;53.266;7.920;2023-08-06T14:47:33;3.40;;;2.20;;
29662;SDS011;16578;53.266;7.920;2023-08-06T14:49:58;3.03;;;2.15;;
29662;SDS011;16578;53.266;7.920;2023-08-06T14:52:24;2.30;;;2.10;;
29662;SDS011;16578;53.266;7.920;2023-08-06T14:54:49;3.28;;;1.90;;
29662;SDS011;16578;53.266;7.920;2023-08-06T14:57:17;1.98;;;1.83;;
29662;SDS011;16578;53.266;7.920;2023-08-06T14:59:43;2.30;;;2.10;;
29662;SDS011;16578;53.266;7.920;2023-08-06T15:02:08;2.60;;;2.05;;
29662;SDS011;16578;53.266;7.920;2023-08-06T15:04:34;2.42;;;2.20;;
29662;SDS011;16578;53.266;7.920;2023-08-06T15:06:59;2.30;;;1.90;;
29662;SDS011;16578;53.266;7.920;2023-08-06T15:09:25;2.17;;;1.98;;
29662;SDS011;16578;53.266;7.920;2023-08-06T15:11:50;1.98;;;1.85;;
29662;SDS011;16578;53.266;7.920;2023-08-06T15:14:16;2.67;;;2.30;;
29662;SDS011;16578;53.266;7.920;2023-08-06T15:16:46;3.15;;;2.30;;
29662;SDS011;16578;53.266;7.920;2023-08-06T15:19:12;2.92;;;2.00;;
29662;SDS011;16578;53.266;7.920;2023-08-06T15:21:37;3.47;;;2.42;;
29662;SDS011;16578;53.266;7.920;2023-08-06T15:24:03;4.38;;;2.30;;
29662;SDS011;16578;53.266;7.920;2023-08-06T15:26:29;2.30;;;2.10;;
29662;SDS011;16578;53.266;7.920;2023-08-06T15:28:54;2.50;;;2.30;;
29662;SDS011;16578;53.266;7.920;2023-08-06T15:31:21;2.92;;;2.08;;
29662;SDS011;16578;53.266;7.920;2023-08-06T15:33:47;2.22;;;1.95;;
29662;SDS011;16578;53.266;7.920;2023-08-06T15:36:13;2.55;;;2.13;;
29662;SDS011;16578;53.266;7.920;2023-08-06T15:38:39;4.97;;;2.22;;
29662;SDS011;16578;53.266;7.920;2023-08-06T15:41:04;2.80;;;2.17;;
29662;SDS011;16578;53.266;7.920;2023-08-06T15:43:30;2.35;;;1.92;;